sensor_id;sensor_type;location;lat;lon;timestamp;temperature;humidity
18388;DHT22;9320;50.256;19.026;2023-04-24T00:00:25;13.70;99.90
18388;DHT22;9320;50.256;19.026;2023-04-24T00:02:54;13.70;99.90
18388;DHT22;9320;50.256;19.026;2023-04-24T00:05:24;13.70;99.90
18388;DHT22;9320;50.256;19.026;2023-04-24T00:07:53;13.70;99.90
18388;DHT22;9320;50.256;19.026;2023-04-24T00:10:21;13.70;99.90
18388;DHT22;9320;50.256;19.026;2023-04-24T00:12:49;13.70;99.90
18388;DHT22;9320;50.256;19.026;2023-04-24T00:15:18;13.80;99.90
18388;DHT22;9320;50.256;19.026;2023-04-24T00:17:45;13.70;99.90
18388;DHT22;9320;50.256;19.026;2023-04-24T00:20:15;13.60;99.90
18388;DHT22;9320;50.256;19.026;2023-04-24T00:22:43;13.60;99.90
18388;DHT22;9320;50.256;19.026;2023-04-24T00:25:11;13.50;99.90
18388;DHT22;9320;50.256;19.026;2023-04-24T00:27:39;13.50;99.90
18388;DHT22;9320;50.256;19.026;2023-04-24T00:30:08;13.30;99.90
18388;DHT22;9320;50.256;19.026;2023-04-24T00:32:36;13.30;99.90
18388;DHT22;9320;50.256;19.026;2023-04-24T00:35:05;13.20;99.90
18388;DHT22;9320;50.256;19.026;2023-04-24T00:37:35;13.20;99.90
18388;DHT22;9320;50.256;19.026;2023-04-24T00:40:04;13.10;99.90
18388;DHT22;9320;50.256;19.026;2023-04-24T00:42:33;13.10;99.90
18388;DHT22;9320;50.256;19.026;2023-04-24T00:45:02;13.00;99.90
18388;DHT22;9320;50.256;19.026;2023-04-24T00:47:32;13.00;99.90
18388;DHT22;9320;50.256;19.026;2023-04-24T00:50:01;13.10;99.90
18388;DHT22;9320;50.256;19.026;2023-04-24T00:52:29;13.10;99.90
18388;DHT22;9320;50.256;19.026;2023-04-24T00:55:00;13.00;99.90
18388;DHT22;9320;50.256;19.026;2023-04-24T00:57:28;12.90;99.90
18388;DHT22;9320;50.256;19.026;2023-04-24T00:59:56;12.80;99.90
18388;DHT22;9320;50.256;19.026;2023-04-24T01:02:25;12.80;99.90
18388;DHT22;9320;50.256;19.026;2023-04-24T01:04:53;12.80;99.90
18388;DHT22;9320;50.256;19.026;2023-04-24T01:07:22;12.80;99.90
18388;DHT22;9320;50.256;19.026;2023-04-24T01:09:50;12.80;99.90
18388;DHT22;9320;50.256;19.026;2023-04-24T01:12:20;12.80;99.90
18388;DHT22;9320;50.256;19.026;2023-04-24T01:14:48;12.80;99.90
18388;DHT22;9320;50.256;19.026;2023-04-24T01:17:16;12.80;99.90
18388;DHT22;9320;50.256;19.026;2023-04-24T01:19:44;12.80;99.90
18388;DHT22;9320;50.256;19.026;2023-04-24T01:22:14;12.80;99.90
18388;DHT22;9320;50.256;19.026;2023-04-24T01:24:43;12.80;99.90
18388;DHT22;9320;50.256;19.026;2023-04-24T01:27:11;12.70;99.90
18388;DHT22;9320;50.256;19.026;2023-04-24T01:29:39;12.70;99.90
18388;DHT22;9320;50.256;19.026;2023-04-24T01:32:08;12.50;99.90
18388;DHT22;9320;50.256;19.026;2023-04-24T01:34:37;12.50;99.90
18388;DHT22;9320;50.256;19.026;2023-04-24T01:37:05;12.50;99.90
18388;DHT22;9320;50.256;19.026;2023-04-24T01:39:34;12.50;99.90
18388;DHT22;9320;50.256;19.026;2023-04-24T01:42:02;12.50;99.90
18388;DHT22;9320;50.256;19.026;2023-04-24T01:44:30;12.60;99.90
18388;DHT22;9320;50.256;19.026;2023-04-24T01:47:00;12.60;99.90
18388;DHT22;9320;50.256;19.026;2023-04-24T01:49:28;12.60;99.90
18388;DHT22;9320;50.256;19.026;2023-04-24T01:51:57;12.60;99.90
18388;DHT22;9320;50.256;19.026;2023-04-24T01:54:25;12.50;99.90
18388;DHT22;9320;50.256;19.026;2023-04-24T01:56:54;12.60;99.90
18388;DHT22;9320;50.256;19.026;2023-04-24T01:59:23;12.50;99.90
18388;DHT22;9320;50.256;19.026;2023-04-24T02:01:52;12.40;99.90
18388;DHT22;9320;50.256;19.026;2023-04-24T02:04:21;12.40;99.90
18388;DHT22;9320;50.256;19.026;2023-04-24T02:06:49;12.40;99.90
18388;DHT22;9320;50.256;19.026;2023-04-24T02:09:17;12.40;99.90
18388;DHT22;9320;50.256;19.026;2023-04-24T02:11:45;12.40;99.90
18388;DHT22;9320;50.256;19.026;2023-04-24T02:14:14;12.40;99.90
18388;DHT22;9320;50.256;19.026;2023-04-24T02:16:42;12.40;99.90
18388;DHT22;9320;50.256;19.026;2023-04-24T02:19:10;12.30;99.90
18388;DHT22;9320;50.256;19.026;2023-04-24T02:21:38;12.30;99.90
18388;DHT22;9320;50.256;19.026;2023-04-24T02:24:06;12.40;99.90
18388;DHT22;9320;50.256;19.026;2023-04-24T02:26:34;12.40;99.90
18388;DHT22;9320;50.256;19.026;2023-04-24T02:29:02;12.40;99.90
18388;DHT22;9320;50.256;19.026;2023-04-24T02:31:32;12.40;99.90
18388;DHT22;9320;50.256;19.026;2023-04-24T02:34:00;12.50;99.30
18388;DHT22;9320;50.256;19.026;2023-04-24T02:36:28;12.30;99.00
18388;DHT22;9320;50.256;19.026;2023-04-24T02:38:56;12.20;98.80
18388;DHT22;9320;50.256;19.026;2023-04-24T02:41:24;12.20;98.60
18388;DHT22;9320;50.256;19.026;2023-04-24T02:43:58;12.20;97.90
18388;DHT22;9320;50.256;19.026;2023-04-24T02:46:26;12.30;97.80
18388;DHT22;9320;50.256;19.026;2023-04-24T02:48:55;12.30;97.50
18388;DHT22;9320;50.256;19.026;2023-04-24T02:51:23;12.30;97.70
18388;DHT22;9320;50.256;19.026;2023-04-24T02:53:51;12.40;97.40
18388;DHT22;9320;50.256;19.026;2023-04-24T02:56:19;12.30;96.80
18388;DHT22;9320;50.256;19.026;2023-04-24T02:58:47;12.30;96.50
18388;DHT22;9320;50.256;19.026;2023-04-24T03:01:15;12.20;96.30
18388;DHT22;9320;50.256;19.026;2023-04-24T03:03:44;12.10;97.00
18388;DHT22;9320;50.256;19.026;2023-04-24T03:06:14;12.20;96.90
18388;DHT22;9320;50.256;19.026;2023-04-24T03:08:42;12.30;96.30
18388;DHT22;9320;50.256;19.026;2023-04-24T03:11:10;12.20;96.80
18388;DHT22;9320;50.256;19.026;2023-04-24T03:13:38;12.30;96.70
18388;DHT22;9320;50.256;19.026;2023-04-24T03:16:06;12.30;96.60
18388;DHT22;9320;50.256;19.026;2023-04-24T03:18:34;12.30;96.50
18388;DHT22;9320;50.256;19.026;2023-04-24T03:21:02;12.40;96.00
18388;DHT22;9320;50.256;19.026;2023-04-24T03:23:32;12.40;96.30
18388;DHT22;9320;50.256;19.026;2023-04-24T03:26:00;12.40;96.70
18388;DHT22;9320;50.256;19.026;2023-04-24T03:28:29;12.40;97.20
18388;DHT22;9320;50.256;19.026;2023-04-24T03:30:56;12.50;98.70
18388;DHT22;9320;50.256;19.026;2023-04-24T03:33:24;12.20;99.30
18388;DHT22;9320;50.256;19.026;2023-04-24T03:35:52;12.30;99.30
18388;DHT22;9320;50.256;19.026;2023-04-24T03:38:20;12.30;99.40
18388;DHT22;9320;50.256;19.026;2023-04-24T03:40:50;12.40;99.50
18388;DHT22;9320;50.256;19.026;2023-04-24T03:43:18;12.40;99.00
18388;DHT22;9320;50.256;19.026;2023-04-24T03:45:46;12.40;98.50
18388;DHT22;9320;50.256;19.026;2023-04-24T03:48:14;12.40;98.90
18388;DHT22;9320;50.256;19.026;2023-04-24T03:50:42;12.40;98.80
18388;DHT22;9320;50.256;19.026;2023-04-24T03:53:10;12.40;98.80
18388;DHT22;9320;50.256;19.026;2023-04-24T03:55:38;12.30;98.60
18388;DHT22;9320;50.256;19.026;2023-04-24T03:58:07;12.30;98.60
18388;DHT22;9320;50.256;19.026;2023-04-24T04:00:35;12.30;98.80
18388;DHT22;9320;50.256;19.026;2023-04-24T04:03:04;12.30;98.40
18388;DHT22;9320;50.256;19.026;2023-04-24T04:05:32;12.40;98.10
18388;DHT22;9320;50.256;19.026;2023-04-24T04:08:00;12.40;98.30
18388;DHT22;9320;50.256;19.026;2023-04-24T04:10:28;12.50;98.30
18388;DHT22;9320;50.256;19.026;2023-04-24T04:12:56;12.60;97.70
18388;DHT22;9320;50.256;19.026;2023-04-24T04:15:26;12.80;97.40
18388;DHT22;9320;50.256;19.026;2023-04-24T04:17:54;12.90;96.20
18388;DHT22;9320;50.256;19.026;2023-04-24T04:20:22;13.00;95.60
18388;DHT22;9320;50.256;19.026;2023-04-24T04:22:50;13.00;95.30
18388;DHT22;9320;50.256;19.026;2023-04-24T04:25:18;12.90;95.80
18388;DHT22;9320;50.256;19.026;2023-04-24T04:27:46;13.10;95.10
18388;DHT22;9320;50.256;19.026;2023-04-24T04:30:15;13.00;95.10
18388;DHT22;9320;50.256;19.026;2023-04-24T04:32:44;13.00;94.50
18388;DHT22;9320;50.256;19.026;2023-04-24T04:35:12;13.00;94.30
18388;DHT22;9320;50.256;19.026;2023-04-24T04:37:40;13.10;94.00
18388;DHT22;9320;50.256;19.026;2023-04-24T04:40:09;13.20;93.40
18388;DHT22;9320;50.256;19.026;2023-04-24T04:42:38;13.30;93.60
18388;DHT22;9320;50.256;19.026;2023-04-24T04:45:08;13.50;92.60
18388;DHT22;9320;50.256;19.026;2023-04-24T04:47:37;13.60;91.10
18388;DHT22;9320;50.256;19.026;2023-04-24T04:50:08;13.90;91.60
18388;DHT22;9320;50.256;19.026;2023-04-24T04:52:37;14.00;91.20
18388;DHT22;9320;50.256;19.026;2023-04-24T04:55:06;14.30;90.50
18388;DHT22;9320;50.256;19.026;2023-04-24T04:57:34;14.50;89.90
18388;DHT22;9320;50.256;19.026;2023-04-24T05:00:02;14.60;88.10
18388;DHT22;9320;50.256;19.026;2023-04-24T05:02:31;14.70;84.70
18388;DHT22;9320;50.256;19.026;2023-04-24T05:04:59;14.80;85.80
18388;DHT22;9320;50.256;19.026;2023-04-24T05:07:29;15.00;83.20
18388;DHT22;9320;50.256;19.026;2023-04-24T05:09:57;15.20;84.00
18388;DHT22;9320;50.256;19.026;2023-04-24T05:12:25;15.30;82.10
18388;DHT22;9320;50.256;19.026;2023-04-24T05:14:53;15.40;80.00
18388;DHT22;9320;50.256;19.026;2023-04-24T05:17:21;15.50;77.80
18388;DHT22;9320;50.256;19.026;2023-04-24T05:19:49;15.60;74.80
18388;DHT22;9320;50.256;19.026;2023-04-24T05:22:18;15.60;73.50
18388;DHT22;9320;50.256;19.026;2023-04-24T05:24:49;15.70;73.90
18388;DHT22;9320;50.256;19.026;2023-04-24T05:27:17;15.90;71.80
18388;DHT22;9320;50.256;19.026;2023-04-24T05:29:44;16.00;72.70
18388;DHT22;9320;50.256;19.026;2023-04-24T05:32:12;16.10;70.80
18388;DHT22;9320;50.256;19.026;2023-04-24T05:34:40;16.10;70.00
18388;DHT22;9320;50.256;19.026;2023-04-24T05:37:08;16.20;70.10
18388;DHT22;9320;50.256;19.026;2023-04-24T05:39:36;16.30;69.80
18388;DHT22;9320;50.256;19.026;2023-04-24T05:42:06;16.40;70.20
18388;DHT22;9320;50.256;19.026;2023-04-24T05:44:34;16.50;71.00
18388;DHT22;9320;50.256;19.026;2023-04-24T05:47:03;16.50;67.70
18388;DHT22;9320;50.256;19.026;2023-04-24T05:49:31;16.40;66.10
18388;DHT22;9320;50.256;19.026;2023-04-24T05:51:59;16.50;65.70
18388;DHT22;9320;50.256;19.026;2023-04-24T05:54:27;16.70;64.60
18388;DHT22;9320;50.256;19.026;2023-04-24T05:56:55;16.70;63.90
18388;DHT22;9320;50.256;19.026;2023-04-24T05:59:24;16.70;62.20
18388;DHT22;9320;50.256;19.026;2023-04-24T06:01:53;16.70;62.70
18388;DHT22;9320;50.256;19.026;2023-04-24T06:04:21;16.70;62.20
18388;DHT22;9320;50.256;19.026;2023-04-24T06:06:49;16.80;61.40
18388;DHT22;9320;50.256;19.026;2023-04-24T06:09:22;16.80;61.30
18388;DHT22;9320;50.256;19.026;2023-04-24T06:11:50;16.70;61.30
18388;DHT22;9320;50.256;19.026;2023-04-24T06:14:19;16.70;61.30
18388;DHT22;9320;50.256;19.026;2023-04-24T06:16:49;16.70;61.40
18388;DHT22;9320;50.256;19.026;2023-04-24T06:19:17;16.80;60.90
18388;DHT22;9320;50.256;19.026;2023-04-24T06:21:45;16.70;60.80
18388;DHT22;9320;50.256;19.026;2023-04-24T06:24:14;16.70;59.50
18388;DHT22;9320;50.256;19.026;2023-04-24T06:26:42;16.60;60.30
18388;DHT22;9320;50.256;19.026;2023-04-24T06:29:10;16.70;59.90
18388;DHT22;9320;50.256;19.026;2023-04-24T06:31:38;16.70;59.70
18388;DHT22;9320;50.256;19.026;2023-04-24T06:34:08;16.70;60.10
18388;DHT22;9320;50.256;19.026;2023-04-24T06:36:36;16.80;60.00
18388;DHT22;9320;50.256;19.026;2023-04-24T06:39:04;16.80;59.60
18388;DHT22;9320;50.256;19.026;2023-04-24T06:41:32;16.80;59.40
18388;DHT22;9320;50.256;19.026;2023-04-24T06:44:00;16.80;59.00
18388;DHT22;9320;50.256;19.026;2023-04-24T06:46:29;16.90;59.10
18388;DHT22;9320;50.256;19.026;2023-04-24T06:48:57;17.00;59.10
18388;DHT22;9320;50.256;19.026;2023-04-24T06:51:26;17.10;58.70
18388;DHT22;9320;50.256;19.026;2023-04-24T06:53:55;17.10;58.40
18388;DHT22;9320;50.256;19.026;2023-04-24T06:56:23;17.20;58.70
18388;DHT22;9320;50.256;19.026;2023-04-24T06:58:51;17.20;58.20
18388;DHT22;9320;50.256;19.026;2023-04-24T07:01:20;17.30;58.00
18388;DHT22;9320;50.256;19.026;2023-04-24T07:03:48;17.30;57.60
18388;DHT22;9320;50.256;19.026;2023-04-24T07:06:17;17.50;57.50
18388;DHT22;9320;50.256;19.026;2023-04-24T07:08:49;17.50;56.50
18388;DHT22;9320;50.256;19.026;2023-04-24T07:11:17;17.80;56.50
18388;DHT22;9320;50.256;19.026;2023-04-24T07:13:45;18.10;56.10
18388;DHT22;9320;50.256;19.026;2023-04-24T07:16:13;18.30;55.60
18388;DHT22;9320;50.256;19.026;2023-04-24T07:18:41;18.30;54.70
18388;DHT22;9320;50.256;19.026;2023-04-24T07:21:10;18.40;55.00
18388;DHT22;9320;50.256;19.026;2023-04-24T07:23:38;18.50;53.80
18388;DHT22;9320;50.256;19.026;2023-04-24T07:26:09;18.70;53.70
18388;DHT22;9320;50.256;19.026;2023-04-24T07:28:37;18.70;53.50
18388;DHT22;9320;50.256;19.026;2023-04-24T07:31:05;18.80;53.40
18388;DHT22;9320;50.256;19.026;2023-04-24T07:33:33;18.80;52.80
18388;DHT22;9320;50.256;19.026;2023-04-24T07:36:03;18.80;53.20
18388;DHT22;9320;50.256;19.026;2023-04-24T07:38:33;18.80;52.40
18388;DHT22;9320;50.256;19.026;2023-04-24T07:41:02;18.80;52.20
18388;DHT22;9320;50.256;19.026;2023-04-24T07:43:34;18.70;52.30
18388;DHT22;9320;50.256;19.026;2023-04-24T07:46:02;18.80;52.30
18388;DHT22;9320;50.256;19.026;2023-04-24T07:48:33;19.00;51.30
18388;DHT22;9320;50.256;19.026;2023-04-24T07:51:01;19.00;51.50
18388;DHT22;9320;50.256;19.026;2023-04-24T07:53:29;19.20;52.00
18388;DHT22;9320;50.256;19.026;2023-04-24T07:55:57;19.30;51.80
18388;DHT22;9320;50.256;19.026;2023-04-24T07:58:25;19.30;50.90
18388;DHT22;9320;50.256;19.026;2023-04-24T08:00:55;19.40;51.30
18388;DHT22;9320;50.256;19.026;2023-04-24T08:03:24;19.50;50.80
18388;DHT22;9320;50.256;19.026;2023-04-24T08:05:52;19.50;51.40
18388;DHT22;9320;50.256;19.026;2023-04-24T08:08:22;19.70;49.90
18388;DHT22;9320;50.256;19.026;2023-04-24T08:10:50;19.90;49.40
18388;DHT22;9320;50.256;19.026;2023-04-24T08:13:19;19.90;48.90
18388;DHT22;9320;50.256;19.026;2023-04-24T08:15:47;20.30;49.30
18388;DHT22;9320;50.256;19.026;2023-04-24T08:18:17;20.30;49.80
18388;DHT22;9320;50.256;19.026;2023-04-24T08:20:45;20.50;48.00
18388;DHT22;9320;50.256;19.026;2023-04-24T08:23:13;20.60;48.20
18388;DHT22;9320;50.256;19.026;2023-04-24T08:25:41;20.80;46.70
18388;DHT22;9320;50.256;19.026;2023-04-24T08:28:10;20.90;47.40
18388;DHT22;9320;50.256;19.026;2023-04-24T08:30:38;21.30;46.90
18388;DHT22;9320;50.256;19.026;2023-04-24T08:33:06;21.50;46.50
18388;DHT22;9320;50.256;19.026;2023-04-24T08:35:36;21.80;45.00
18388;DHT22;9320;50.256;19.026;2023-04-24T08:38:04;23.20;44.20
18388;DHT22;9320;50.256;19.026;2023-04-24T08:40:34;25.80;40.90
18388;DHT22;9320;50.256;19.026;2023-04-24T08:43:03;27.50;38.10
18388;DHT22;9320;50.256;19.026;2023-04-24T08:45:32;28.90;36.40
18388;DHT22;9320;50.256;19.026;2023-04-24T08:48:01;30.00;32.10
18388;DHT22;9320;50.256;19.026;2023-04-24T08:50:31;30.40;31.20
18388;DHT22;9320;50.256;19.026;2023-04-24T08:53:01;30.40;30.00
18388;DHT22;9320;50.256;19.026;2023-04-24T08:55:31;31.10;29.80
18388;DHT22;9320;50.256;19.026;2023-04-24T08:58:01;30.80;29.30
18388;DHT22;9320;50.256;19.026;2023-04-24T09:00:30;30.30;28.70
18388;DHT22;9320;50.256;19.026;2023-04-24T09:02:59;30.40;29.10
18388;DHT22;9320;50.256;19.026;2023-04-24T09:05:28;30.30;29.80
18388;DHT22;9320;50.256;19.026;2023-04-24T09:07:57;31.30;30.00
18388;DHT22;9320;50.256;19.026;2023-04-24T09:10:27;32.60;29.10
18388;DHT22;9320;50.256;19.026;2023-04-24T09:12:58;33.50;28.00
18388;DHT22;9320;50.256;19.026;2023-04-24T09:15:29;35.60;26.00
18388;DHT22;9320;50.256;19.026;2023-04-24T09:17:57;36.70;25.70
18388;DHT22;9320;50.256;19.026;2023-04-24T09:20:25;35.20;24.70
18388;DHT22;9320;50.256;19.026;2023-04-24T09:22:54;35.60;26.20
18388;DHT22;9320;50.256;19.026;2023-04-24T09:25:23;36.40;26.10
18388;DHT22;9320;50.256;19.026;2023-04-24T09:27:54;36.50;25.70
18388;DHT22;9320;50.256;19.026;2023-04-24T09:30:22;37.30;24.20
18388;DHT22;9320;50.256;19.026;2023-04-24T09:33:09;36.70;24.80
18388;DHT22;9320;50.256;19.026;2023-04-24T09:35:40;34.10;26.00
18388;DHT22;9320;50.256;19.026;2023-04-24T09:38:09;31.90;27.60
18388;DHT22;9320;50.256;19.026;2023-04-24T09:40:37;30.20;29.10
18388;DHT22;9320;50.256;19.026;2023-04-24T09:43:11;29.00;31.20
18388;DHT22;9320;50.256;19.026;2023-04-24T09:45:39;27.70;32.20
18388;DHT22;9320;50.256;19.026;2023-04-24T09:48:09;26.80;34.20
18388;DHT22;9320;50.256;19.026;2023-04-24T09:50:38;26.40;34.60
18388;DHT22;9320;50.256;19.026;2023-04-24T09:53:06;25.80;35.40
18388;DHT22;9320;50.256;19.026;2023-04-24T09:55:39;25.00;36.60
18388;DHT22;9320;50.256;19.026;2023-04-24T09:58:08;25.00;37.60
18388;DHT22;9320;50.256;19.026;2023-04-24T10:00:37;25.20;37.50
18388;DHT22;9320;50.256;19.026;2023-04-24T10:03:05;25.40;37.20
18388;DHT22;9320;50.256;19.026;2023-04-24T10:05:36;25.70;37.00
18388;DHT22;9320;50.256;19.026;2023-04-24T10:08:06;25.90;36.10
18388;DHT22;9320;50.256;19.026;2023-04-24T10:10:42;26.30;35.50
18388;DHT22;9320;50.256;19.026;2023-04-24T10:13:12;27.00;34.80
18388;DHT22;9320;50.256;19.026;2023-04-24T10:15:42;27.30;34.40
18388;DHT22;9320;50.256;19.026;2023-04-24T10:18:11;28.10;33.90
18388;DHT22;9320;50.256;19.026;2023-04-24T10:20:40;28.00;32.70
18388;DHT22;9320;50.256;19.026;2023-04-24T10:23:08;27.40;33.60
18388;DHT22;9320;50.256;19.026;2023-04-24T10:25:36;26.60;34.80
18388;DHT22;9320;50.256;19.026;2023-04-24T10:28:04;26.10;35.70
18388;DHT22;9320;50.256;19.026;2023-04-24T10:30:36;25.80;36.40
18388;DHT22;9320;50.256;19.026;2023-04-24T10:33:07;25.80;36.70
18388;DHT22;9320;50.256;19.026;2023-04-24T10:35:40;25.60;36.50
18388;DHT22;9320;50.256;19.026;2023-04-24T10:38:12;25.90;36.10
18388;DHT22;9320;50.256;19.026;2023-04-24T10:40:42;26.30;36.30
18388;DHT22;9320;50.256;19.026;2023-04-24T10:43:10;26.00;36.30
18388;DHT22;9320;50.256;19.026;2023-04-24T10:45:38;25.50;36.80
18388;DHT22;9320;50.256;19.026;2023-04-24T10:48:08;25.00;37.40
18388;DHT22;9320;50.256;19.026;2023-04-24T10:50:45;24.80;37.20
18388;DHT22;9320;50.256;19.026;2023-04-24T10:53:16;24.50;37.90
18388;DHT22;9320;50.256;19.026;2023-04-24T10:55:46;24.20;37.70
18388;DHT22;9320;50.256;19.026;2023-04-24T10:58:15;24.10;38.20
18388;DHT22;9320;50.256;19.026;2023-04-24T11:00:54;23.70;39.50
18388;DHT22;9320;50.256;19.026;2023-04-24T11:03:26;23.40;41.30
18388;DHT22;9320;50.256;19.026;2023-04-24T11:06:00;23.10;42.40
18388;DHT22;9320;50.256;19.026;2023-04-24T11:08:36;22.80;43.60
18388;DHT22;9320;50.256;19.026;2023-04-24T11:11:09;22.60;43.90
18388;DHT22;9320;50.256;19.026;2023-04-24T11:14:03;22.30;44.70
18388;DHT22;9320;50.256;19.026;2023-04-24T11:16:35;22.10;45.50
18388;DHT22;9320;50.256;19.026;2023-04-24T11:19:08;22.00;46.20
18388;DHT22;9320;50.256;19.026;2023-04-24T11:21:41;22.00;46.00
18388;DHT22;9320;50.256;19.026;2023-04-24T11:24:26;21.90;46.00
18388;DHT22;9320;50.256;19.026;2023-04-24T11:26:55;21.80;46.70
18388;DHT22;9320;50.256;19.026;2023-04-24T11:29:39;21.50;47.60
18388;DHT22;9320;50.256;19.026;2023-04-24T11:32:24;21.30;48.30
18388;DHT22;9320;50.256;19.026;2023-04-24T11:34:55;21.20;48.80
18388;DHT22;9320;50.256;19.026;2023-04-24T11:37:26;21.00;49.10
18388;DHT22;9320;50.256;19.026;2023-04-24T11:39:56;20.90;49.60
18388;DHT22;9320;50.256;19.026;2023-04-24T11:42:25;20.90;49.50
18388;DHT22;9320;50.256;19.026;2023-04-24T11:44:54;20.90;49.60
18388;DHT22;9320;50.256;19.026;2023-04-24T11:47:28;20.90;49.50
18388;DHT22;9320;50.256;19.026;2023-04-24T11:49:58;21.00;49.90
18388;DHT22;9320;50.256;19.026;2023-04-24T11:52:28;21.20;49.40
18388;DHT22;9320;50.256;19.026;2023-04-24T11:54:56;21.20;49.40
18388;DHT22;9320;50.256;19.026;2023-04-24T11:57:25;21.40;49.20
18388;DHT22;9320;50.256;19.026;2023-04-24T11:59:55;21.70;49.00
18388;DHT22;9320;50.256;19.026;2023-04-24T12:02:24;22.20;48.10
18388;DHT22;9320;50.256;19.026;2023-04-24T12:04:53;22.60;47.80
18388;DHT22;9320;50.256;19.026;2023-04-24T12:07:23;22.40;47.10
18388;DHT22;9320;50.256;19.026;2023-04-24T12:09:56;22.40;47.00
18388;DHT22;9320;50.256;19.026;2023-04-24T12:12:26;22.20;47.10
18388;DHT22;9320;50.256;19.026;2023-04-24T12:14:56;22.10;47.30
18388;DHT22;9320;50.256;19.026;2023-04-24T12:17:26;22.00;48.40
18388;DHT22;9320;50.256;19.026;2023-04-24T12:19:57;21.80;49.40
18388;DHT22;9320;50.256;19.026;2023-04-24T12:22:27;21.80;50.10
18388;DHT22;9320;50.256;19.026;2023-04-24T12:24:59;21.60;50.70
18388;DHT22;9320;50.256;19.026;2023-04-24T12:27:31;21.50;51.00
18388;DHT22;9320;50.256;19.026;2023-04-24T12:30:02;21.50;51.60
18388;DHT22;9320;50.256;19.026;2023-04-24T12:32:30;21.50;51.80
18388;DHT22;9320;50.256;19.026;2023-04-24T12:34:58;21.30;51.60
18388;DHT22;9320;50.256;19.026;2023-04-24T12:37:33;21.40;50.80
18388;DHT22;9320;50.256;19.026;2023-04-24T12:40:05;21.40;50.50
18388;DHT22;9320;50.256;19.026;2023-04-24T12:42:35;21.40;51.00
18388;DHT22;9320;50.256;19.026;2023-04-24T12:45:05;21.30;51.00
18388;DHT22;9320;50.256;19.026;2023-04-24T12:47:35;21.10;51.40
18388;DHT22;9320;50.256;19.026;2023-04-24T12:50:04;21.00;52.90
18388;DHT22;9320;50.256;19.026;2023-04-24T12:52:34;20.90;52.60
18388;DHT22;9320;50.256;19.026;2023-04-24T12:55:03;20.90;53.00
18388;DHT22;9320;50.256;19.026;2023-04-24T12:57:31;21.00;53.60
18388;DHT22;9320;50.256;19.026;2023-04-24T12:59:59;20.90;53.80
18388;DHT22;9320;50.256;19.026;2023-04-24T13:02:29;20.90;53.90
18388;DHT22;9320;50.256;19.026;2023-04-24T13:04:58;20.80;54.20
18388;DHT22;9320;50.256;19.026;2023-04-24T13:07:27;20.70;54.80
18388;DHT22;9320;50.256;19.026;2023-04-24T13:09:57;20.50;55.10
18388;DHT22;9320;50.256;19.026;2023-04-24T13:12:25;20.60;55.20
18388;DHT22;9320;50.256;19.026;2023-04-24T13:14:53;20.50;55.10
18388;DHT22;9320;50.256;19.026;2023-04-24T13:17:22;20.70;55.10
18388;DHT22;9320;50.256;19.026;2023-04-24T13:19:51;20.60;54.90
18388;DHT22;9320;50.256;19.026;2023-04-24T13:22:20;20.70;55.10
18388;DHT22;9320;50.256;19.026;2023-04-24T13:24:48;20.70;54.70
18388;DHT22;9320;50.256;19.026;2023-04-24T13:27:18;20.50;55.30
18388;DHT22;9320;50.256;19.026;2023-04-24T13:29:46;20.60;55.70
18388;DHT22;9320;50.256;19.026;2023-04-24T13:32:14;20.40;55.80
18388;DHT22;9320;50.256;19.026;2023-04-24T13:34:43;20.20;56.30
18388;DHT22;9320;50.256;19.026;2023-04-24T13:37:11;20.10;56.90
18388;DHT22;9320;50.256;19.026;2023-04-24T13:39:39;20.10;57.40
18388;DHT22;9320;50.256;19.026;2023-04-24T13:42:08;19.90;57.80
18388;DHT22;9320;50.256;19.026;2023-04-24T13:44:38;19.70;58.20
18388;DHT22;9320;50.256;19.026;2023-04-24T13:47:07;19.60;58.70
18388;DHT22;9320;50.256;19.026;2023-04-24T13:49:35;19.40;59.10
18388;DHT22;9320;50.256;19.026;2023-04-24T13:52:03;19.30;59.90
18388;DHT22;9320;50.256;19.026;2023-04-24T13:54:31;19.30;60.40
18388;DHT22;9320;50.256;19.026;2023-04-24T13:56:59;19.20;61.00
18388;DHT22;9320;50.256;19.026;2023-04-24T13:59:29;19.20;61.10
18388;DHT22;9320;50.256;19.026;2023-04-24T14:01:59;19.10;62.10
18388;DHT22;9320;50.256;19.026;2023-04-24T14:04:27;19.00;62.20
18388;DHT22;9320;50.256;19.026;2023-04-24T14:06:55;18.80;62.70
18388;DHT22;9320;50.256;19.026;2023-04-24T14:09:23;18.60;63.90
18388;DHT22;9320;50.256;19.026;2023-04-24T14:11:51;18.40;64.80
18388;DHT22;9320;50.256;19.026;2023-04-24T14:14:19;18.40;65.40
18388;DHT22;9320;50.256;19.026;2023-04-24T14:16:47;18.20;66.70
18388;DHT22;9320;50.256;19.026;2023-04-24T14:19:17;18.10;67.60
18388;DHT22;9320;50.256;19.026;2023-04-24T14:21:45;17.80;69.00
18388;DHT22;9320;50.256;19.026;2023-04-24T14:24:13;17.80;69.70
18388;DHT22;9320;50.256;19.026;2023-04-24T14:26:41;17.80;70.30
18388;DHT22;9320;50.256;19.026;2023-04-24T14:29:09;17.80;70.50
18388;DHT22;9320;50.256;19.026;2023-04-24T14:31:41;17.80;70.70
18388;DHT22;9320;50.256;19.026;2023-04-24T14:34:09;17.80;70.70
18388;DHT22;9320;50.256;19.026;2023-04-24T14:36:38;17.70;71.10
18388;DHT22;9320;50.256;19.026;2023-04-24T14:39:07;17.70;71.10
18388;DHT22;9320;50.256;19.026;2023-04-24T14:41:35;17.80;71.20
18388;DHT22;9320;50.256;19.026;2023-04-24T14:44:03;17.80;71.00
18388;DHT22;9320;50.256;19.026;2023-04-24T14:46:32;17.80;71.40
18388;DHT22;9320;50.256;19.026;2023-04-24T14:49:00;18.00;70.70
18388;DHT22;9320;50.256;19.026;2023-04-24T14:51:28;18.00;70.30
18388;DHT22;9320;50.256;19.026;2023-04-24T14:53:58;18.00;70.70
18388;DHT22;9320;50.256;19.026;2023-04-24T14:56:26;18.00;70.10
18388;DHT22;9320;50.256;19.026;2023-04-24T14:58:55;17.90;70.20
18388;DHT22;9320;50.256;19.026;2023-04-24T15:01:23;17.90;70.10
18388;DHT22;9320;50.256;19.026;2023-04-24T15:03:51;17.90;69.80
18388;DHT22;9320;50.256;19.026;2023-04-24T15:06:20;17.90;69.70
18388;DHT22;9320;50.256;19.026;2023-04-24T15:08:48;17.90;70.10
18388;DHT22;9320;50.256;19.026;2023-04-24T15:11:18;18.00;70.00
18388;DHT22;9320;50.256;19.026;2023-04-24T15:13:46;17.90;70.20
18388;DHT22;9320;50.256;19.026;2023-04-24T15:16:14;18.00;70.80
18388;DHT22;9320;50.256;19.026;2023-04-24T15:18:43;17.80;70.60
18388;DHT22;9320;50.256;19.026;2023-04-24T15:21:11;17.70;71.00
18388;DHT22;9320;50.256;19.026;2023-04-24T15:23:39;17.60;71.40
18388;DHT22;9320;50.256;19.026;2023-04-24T15:26:08;17.50;71.90
18388;DHT22;9320;50.256;19.026;2023-04-24T15:28:37;17.60;72.00
18388;DHT22;9320;50.256;19.026;2023-04-24T15:31:05;17.70;71.90
18388;DHT22;9320;50.256;19.026;2023-04-24T15:33:33;17.80;72.20
18388;DHT22;9320;50.256;19.026;2023-04-24T15:36:01;17.80;72.10
18388;DHT22;9320;50.256;19.026;2023-04-24T15:38:29;17.70;72.40
18388;DHT22;9320;50.256;19.026;2023-04-24T15:40:57;17.80;73.20